Williamsburg, VA

6:51 PM EST on February 07, 2016 (GMT -0500)
Williamsburg-jamestown

Weather History for KJGG - December, 2011

Change the Weather History Date:

Wednesday, December 21, 2011

  Actual Average Record
Temperature  
Mean Temperature 58 °F -  
Max Temperature 66 °F 50 °F 73 °F (2013)
Min Temperature 50 °F 30 °F 4 °F (1985)
Degree Days  
Heating Degree Days 7    
Growing Degree Days 8 (Base 50)    
Moisture  
Dew Point 57 °F    
Average Humidity 90    
Maximum Humidity 100    
Minimum Humidity 82    
Precipitation  
Precipitation 0.28 in - - ()
Sea Level Pressure  
Sea Level Pressure 30.03 in    
Wind  
Wind Speed 6 mph (SSW)    
Max Wind Speed 15 mph    
Max Gust Speed 25 mph    
Visibility 9 miles    
Events      
Averages and records for this station are not official NWS values.
T = Trace of Precipitation, MM = Missing Value Source: NWS Daily Summary

Daily Weather History Graph

Daily Weather History Graph

Search for Another Location

Airport or City:

Trip Planner

Search our weather history database for the weather conditions in past years. The results will help you decide how hot, cold, wet, or windy it might be!

Date:

Astronomy

Dec. 21, 2011 Rise Set
Actual Time 7:16 AM EST 4:52 PM EST
Civil Twilight 6:47 AM EST 5:22 PM EST
Nautical Twilight 6:15 AM EST 5:54 PM EST
Astronomical Twilight 5:43 AM EST 6:26 PM EST
Moon 3:49 AM EST (12/21) 2:09 PM EST (12/21)
Length of Visible Light 10h 34m
Length of Day
9h 35m
Waning Crescent, 12% of the Moon is Illuminated
Dec 21
Waning Crescent
Dec 24
New
Jan 1
First Quarter
Jan 9
Full
Jan 16
Last Quarter

Hourly Weather History & Observations

Time (EST) Temp. Dew Point Humidity Pressure Visibility Wind Dir Wind Speed Gust Speed Precip Events Conditions
12:15 AM 50.0 °F 46.4 °F 87% 30.14 in 10.0 mi SSE 4.6 mph - N/A   Scattered Clouds
12:35 AM 50.0 °F 46.4 °F 87% 30.14 in 10.0 mi SSE 4.6 mph - N/A   Mostly Cloudy
12:55 AM 50.0 °F 48.2 °F 94% 30.14 in 10.0 mi South 3.5 mph - N/A   Mostly Cloudy
1:15 AM 51.8 °F 48.2 °F 88% 30.13 in 10.0 mi South 3.5 mph - N/A   Mostly Cloudy
1:35 AM 51.8 °F 48.2 °F 88% 30.13 in 10.0 mi South 4.6 mph - N/A   Mostly Cloudy
1:55 AM 51.8 °F 48.2 °F 88% 30.13 in 10.0 mi South 5.8 mph - N/A   Mostly Cloudy
2:15 AM 53.6 °F 51.8 °F 94% 30.13 in 10.0 mi South 4.6 mph - N/A   Overcast
2:35 AM 53.6 °F 51.8 °F 94% 30.13 in 10.0 mi South 4.6 mph - N/A   Overcast
2:55 AM 53.6 °F 51.8 °F 94% 30.12 in 10.0 mi SSE 4.6 mph - N/A   Overcast
3:15 AM 53.6 °F 51.8 °F 94% 30.11 in 10.0 mi SSE 4.6 mph - N/A   Overcast
3:35 AM 53.6 °F 51.8 °F 94% 30.11 in 10.0 mi South 5.8 mph - N/A   Overcast
3:55 AM 55.4 °F 51.8 °F 88% 30.11 in 10.0 mi South 5.8 mph - N/A   Overcast
4:15 AM 55.4 °F 51.8 °F 88% 30.10 in 10.0 mi South 4.6 mph - N/A   Overcast
4:35 AM 55.4 °F 51.8 °F 88% 30.10 in 10.0 mi South 3.5 mph - N/A   Overcast
4:55 AM 53.6 °F 51.8 °F 94% 30.10 in 7.0 mi South 4.6 mph - N/A   Overcast
5:15 AM 55.4 °F 53.6 °F 94% 30.11 in 7.0 mi SSW 3.5 mph - 0.01 in   Overcast
5:35 AM 55.4 °F 53.6 °F 94% 30.10 in 7.0 mi South 8.1 mph - 0.02 in   Overcast
5:55 AM 55.4 °F 53.6 °F 94% 30.10 in 5.0 mi SSW 3.5 mph - 0.04 in   Overcast
6:15 AM 55.4 °F 53.6 °F 94% 30.10 in 7.0 mi South 4.6 mph - N/A   Overcast
7:15 AM 55.4 °F 53.6 °F 94% 30.09 in 7.0 mi South 3.5 mph - N/A   Overcast
7:35 AM 55.4 °F 53.6 °F 94% 30.09 in 5.0 mi South 5.8 mph - N/A   Overcast
7:55 AM 55.4 °F 53.6 °F 94% 30.09 in 7.0 mi South 5.8 mph - N/A   Overcast
8:15 AM 55.4 °F 55.4 °F 100% 30.08 in 10.0 mi SSE 8.1 mph - N/A   Overcast
8:35 AM 55.4 °F 55.4 °F 100% 30.08 in 10.0 mi South 4.6 mph - N/A   Overcast
8:55 AM 57.2 °F 55.4 °F 94% 30.08 in 10.0 mi South 6.9 mph - N/A   Overcast
9:15 AM 57.2 °F 55.4 °F 94% 30.09 in 10.0 mi South 4.6 mph - N/A   Overcast
9:35 AM 59.0 °F 55.4 °F 88% 30.09 in 10.0 mi SSW 6.9 mph - N/A   Overcast
9:55 AM 59.0 °F 55.4 °F 88% 30.07 in 10.0 mi South 8.1 mph - N/A   Scattered Clouds
10:15 AM 60.8 °F 55.4 °F 82% 30.06 in 10.0 mi South 8.1 mph - N/A   Clear
10:55 AM 62.6 °F 57.2 °F 82% 30.05 in 10.0 mi South 8.1 mph - N/A   Clear
11:15 AM 62.6 °F 57.2 °F 82% 30.04 in 10.0 mi SSW 5.8 mph - N/A   Mostly Cloudy
11:35 AM 62.6 °F 59.0 °F 88% 30.04 in 7.0 mi SW 5.8 mph - 0.01 in   Mostly Cloudy
11:55 AM 62.6 °F 59.0 °F 88% 30.02 in 7.0 mi SW 6.9 mph - 0.01 in   Overcast
12:15 PM 62.6 °F 60.8 °F 94% 30.01 in 7.0 mi SSW 9.2 mph - 0.01 in   Overcast
12:35 PM 62.6 °F 60.8 °F 94% 30.00 in 5.0 mi SSW 6.9 mph - 0.01 in   Overcast
1:15 PM 62.6 °F 60.8 °F 94% 29.99 in 4.0 mi SSW 8.1 mph - 0.03 in   Overcast
1:35 PM 62.6 °F 60.8 °F 94% 29.98 in 10.0 mi SSW 6.9 mph - 0.03 in   Overcast
1:55 PM 62.6 °F 60.8 °F 94% 29.97 in 10.0 mi SSW 9.2 mph - 0.03 in   Overcast
2:15 PM 64.4 °F 62.6 °F 94% 29.96 in 7.0 mi SSW 9.2 mph - N/A   Overcast
2:35 PM 64.4 °F 62.6 °F 94% 29.97 in 10.0 mi SW 11.5 mph 19.6 mph N/A   Overcast
2:55 PM 64.4 °F 62.6 °F 94% 29.96 in 5.0 mi SSW 8.1 mph 18.4 mph 0.01 in   Overcast
3:15 PM 64.4 °F 62.6 °F 94% 29.97 in 2.5 mi SW 10.4 mph 19.6 mph 0.04 in   Overcast
3:35 PM 64.4 °F 62.6 °F 94% 29.96 in 5.0 mi SSW 9.2 mph 18.4 mph 0.08 in   Overcast
3:55 PM 64.4 °F 60.8 °F 88% 29.96 in 3.0 mi SSW 8.1 mph 18.4 mph 0.12 in   Overcast
4:15 PM 64.4 °F 62.6 °F 94% 29.94 in 5.0 mi SSW 6.9 mph 16.1 mph 0.04 in   Overcast
4:35 PM 64.4 °F 62.6 °F 94% 29.95 in 7.0 mi SSW 9.2 mph - 0.06 in   Overcast
4:55 PM 64.4 °F 62.6 °F 94% 29.94 in 10.0 mi South 6.9 mph 17.3 mph 0.06 in   Mostly Cloudy
5:15 PM 64.4 °F 60.8 °F 88% 29.93 in 10.0 mi South 10.4 mph 16.1 mph N/A   Mostly Cloudy
5:35 PM 64.4 °F 60.8 °F 88% 29.93 in 10.0 mi South 8.1 mph - N/A   Overcast
5:55 PM 62.6 °F 60.8 °F 94% 29.92 in 10.0 mi South 10.4 mph 16.1 mph N/A   Overcast
6:15 PM 64.4 °F 62.6 °F 94% 29.93 in 10.0 mi SW 5.8 mph - N/A   Scattered Clouds
6:55 PM 64.4 °F 62.6 °F 94% 29.94 in 10.0 mi SSW 10.4 mph 16.1 mph N/A   Overcast
7:15 PM 66.2 °F 62.6 °F 88% 29.94 in 10.0 mi SW 8.1 mph 18.4 mph N/A   Overcast
7:35 PM 66.2 °F 62.6 °F 88% 29.94 in 10.0 mi SW 6.9 mph 23.0 mph N/A   Overcast
7:55 PM 66.2 °F 62.6 °F 88% 29.94 in 10.0 mi SW 12.7 mph 19.6 mph N/A   Overcast
8:15 PM 66.2 °F 60.8 °F 83% 29.94 in 10.0 mi SW 15.0 mph 21.9 mph N/A   Overcast
8:35 PM 66.2 °F 60.8 °F 83% 29.94 in 10.0 mi SW 9.2 mph 19.6 mph N/A   Overcast
8:55 PM 66.2 °F 60.8 °F 83% 29.94 in 10.0 mi SW 11.5 mph 20.7 mph N/A   Overcast
9:15 PM 66.2 °F 60.8 °F 83% 29.95 in 10.0 mi SW 11.5 mph 19.6 mph N/A   Overcast
9:35 PM 66.2 °F 60.8 °F 83% 29.95 in 10.0 mi SW 10.4 mph 23.0 mph N/A   Overcast
10:15 PM 66.2 °F 60.8 °F 83% 29.95 in 10.0 mi SW 15.0 mph 25.3 mph N/A   Mostly Cloudy
10:35 PM 66.2 °F 60.8 °F 83% 29.96 in 10.0 mi WSW 11.5 mph 16.1 mph N/A   Scattered Clouds
10:55 PM 66.2 °F 60.8 °F 83% 29.96 in 10.0 mi WSW 9.2 mph - N/A   Scattered Clouds
11:15 PM 64.4 °F 60.8 °F 88% 29.97 in 10.0 mi WSW 8.1 mph 16.1 mph N/A   Scattered Clouds
11:35 PM 64.4 °F 60.8 °F 88% 29.97 in 10.0 mi WSW 9.2 mph - N/A   Overcast
11:55 PM 64.4 °F 60.8 °F 88% 29.96 in 10.0 mi WSW 6.9 mph - N/A   Mostly Cloudy